EW9675 Weather Reports


Display with metric or nautical units.
time (UTC)temp
F
wind
direction
speed
MPH
gust
MPH
rain 1hr
in
rain 24hr
in
rain mn
in
humidity
%
barometer
mb
20221208015503 70 129 7.0 14.0 0.00 0.00 0.00 48 1017.7
20221208015004 69 136 6.0 14.0 0.00 0.00 0.00 47 1017.8
20221208014503 68 167 6.0 14.0 0.00 0.00 0.00 50 1017.7
20221208014004 67 168 7.0 17.0 0.00 0.00 0.00 49 1017.8
20221208013503 66 176 7.0 17.0 0.00 0.00 0.00 49 1017.9
20221208013004 66 190 6.0 15.0 0.00 0.00 0.00 48 1017.9
20221208012504 66 189 5.0 11.0 0.00 0.00 0.00 49 1017.9
20221208012003 66 171 5.0 10.0 0.00 0.00 0.00 47 1017.8
20221208011503 67 157 4.0 10.0 0.00 0.00 0.00 49 1017.9
20221208011003 67 186 5.0 13.0 0.00 0.00 0.00 48 1018.0
20221208010503 66 200 8.0 15.0 0.00 0.00 0.00 50 1018.0
20221208010004 65 202 8.0 15.0 0.00 0.00 0.00 50 1017.9
20221208005504 64 202 6.0 14.0 0.00 0.00 0.00 49 1018.0
20221208005003 64 212 5.0 13.0 0.00 0.00 0.00 48 1018.1
20221208004503 65 210 5.0 13.0 0.00 0.00 0.00 49 1018.1
20221208004003 66 205 6.0 15.0 0.00 0.00 0.00 48 1018.0
20221208003503 66 192 5.0 15.0 0.00 0.00 0.00 46 1018.0
20221208003004 67 175 5.0 13.0 0.00 0.00 0.00 49 1017.9
20221208002503 66 189 8.0 17.0 0.00 0.00 0.00 47 1018.0
20221208002003 65 181 9.0 19.0 0.00 0.00 0.00 47 1018.1
20221208001503 65 165 8.0 19.0 0.00 0.00 0.00 48 1018.1
20221208001003 64 184 6.0 13.0 0.00 0.00 0.00 50 1018.1
20221208000503 64 194 7.0 18.0 0.00 0.00 0.00 49 1018.1
20221208000003 64 197 6.0 18.0 0.00 0.00 0.00 50 1018.3
20221207235503 64 179 4.0 17.0 0.00 0.00 0.00 52 1018.4
20221207235003 64 147 5.0 14.0 0.00 0.00 0.00 49 1018.4
20221207234503 64 149 5.0 14.0 0.00 0.00 0.00 48 1018.5
20221207234003 64 143 7.0 15.0 0.00 0.00 0.00 49 1018.5
20221207233503 64 141 7.0 15.0 0.00 0.00 0.00 48 1018.6
20221207233004 63 146 5.0 13.0 0.00 0.00 0.00 50 1018.6
20221207232503 62 184 6.0 13.0 0.00 0.00 0.00 53 1018.5
20221207232024 61 209 7.0 11.0 0.00 0.00 0.00 53 1018.6
20221207231526 60 196 7.0 11.0 0.00 0.00 0.00 55 1018.5
20221207231003 59 199 6.0 14.0 0.00 0.00 0.00 56 1018.6
20221207230503 59 205 5.0 14.0 0.00 0.00 0.00 55 1018.6
20221207230003 59 191 4.0 10.0 0.00 0.00 0.00 58 1018.6
20221207225524 59 189 3.0 9.0 0.00 0.00 0.00 58 1018.6
20221207225003 59 184 5.0 18.0 0.00 0.00 0.00 58 1018.6
20221207224503 59 180 7.0 18.0 0.00 0.00 0.00 56 1018.6
20221207224003 59 163 6.0 15.0 0.00 0.00 0.00 57 1018.6
20221207223525 59 161 6.0 13.0 0.00 0.00 0.00 57 1018.5
20221207223003 59 176 6.0 14.0 0.00 0.00 0.00 59 1018.6
20221207222503 58 181 5.0 14.0 0.00 0.00 0.00 60 1018.7
20221207222003 58 183 5.0 14.0 0.00 0.00 0.00 61 1018.7
20221207221503 58 180 5.0 14.0 0.00 0.00 0.00 62 1018.7
20221207221003 58 184 6.0 15.0 0.00 0.00 0.00 63 1018.7
20221207220503 57 188 7.0 15.0 0.00 0.00 0.00 60 1018.6
20221207220025 57 195 6.0 13.0 0.00 0.00 0.00 59 1018.5
20221207215525 57 208 4.0 9.0 0.00 0.00 0.00 64 1018.3
20221207215025 56 204 4.0 10.0 0.00 0.00 0.00 66 1018.3
20221207214504 56 179 4.0 10.0 0.00 0.00 0.00 67 1018.3
20221207214003 55 167 3.0 9.0 0.00 0.00 0.00 69 1018.2
20221207213525 55 175 3.0 10.0 0.00 0.00 0.00 69 1018.3
20221207213003 54 174 3.0 11.0 0.00 0.00 0.00 70 1018.2
20221207212512 54 166 3.0 11.0 0.00 0.00 0.00 72 1018.1
20221207212012 53 146 3.0 8.0 0.00 0.00 0.00 73 1018.0
20221207211512 53 141 3.0 9.0 0.00 0.00 0.00 74 1018.0
20221207211012 52 146 3.0 9.0 0.00 0.00 0.00 76 1017.9
20221207210512 52 136 3.0 8.0 0.00 0.00 0.00 77 1017.9
20221207210033 51 129 3.0 8.0 0.00 0.00 0.00 79 1017.9
20221207205512 50 130 4.0 8.0 0.00 0.00 0.00 81 1017.9
20221207205012 50 126 4.0 8.0 0.00 0.00 0.00 82 1017.9
20221207204533 49 121 4.0 6.0 0.00 0.00 0.00 84 1017.8
20221207204012 49 119 4.0 6.0 0.00 0.00 0.00 85 1017.8
20221207203512 48 117 5.0 8.0 0.00 0.00 0.00 87 1017.6
20221207203033 48 117 5.0 8.0 0.00 0.00 0.00 87 1017.6
20221207202512 47 118 6.0 8.0 0.00 0.00 0.00 87 1017.6
20221207202011 46 115 6.0 8.0 0.00 0.00 0.00 87 1017.5
20221207201512 46 111 6.0 8.0 0.00 0.00 0.00 87 1017.5
20221207201012 46 107 6.0 11.0 0.00 0.00 0.00 87 1017.4
20221207200512 46 102 7.0 11.0 0.00 0.00 0.00 87 1017.3
20221207200012 45 100 8.0 11.0 0.00 0.00 0.00 87 1017.2
20221207195512 45 98 8.0 11.0 0.00 0.00 0.00 87 1017.2
20221207195011 45 97 8.0 11.0 0.00 0.00 0.00 87 1017.0
20221207194512 45 98 8.0 11.0 0.00 0.00 0.00 86 1017.0
20221207194012 45 98 8.0 11.0 0.00 0.00 0.00 86 1016.9
20221207193512 45 99 8.0 10.0 0.00 0.00 0.00 86 1016.9
20221207193012 46 99 8.0 10.0 0.00 0.00 0.00 86 1016.9
20221207192512 46 97 8.0 10.0 0.00 0.00 0.00 86 1016.9
20221207192011 46 97 7.0 11.0 0.00 0.00 0.00 85 1016.8
20221207191512 46 98 8.0 11.0 0.00 0.00 0.00 85 1016.7
20221207191012 46 98 8.0 11.0 0.00 0.00 0.00 85 1016.7
20221207190533 46 99 8.0 11.0 0.00 0.00 0.00 85 1016.7
20221207190033 46 100 8.0 11.0 0.00 0.00 0.00 85 1016.6
20221207185512 46 98 8.0 10.0 0.00 0.00 0.00 85 1016.6
20221207185012 46 97 8.0 10.0 0.00 0.00 0.00 85 1016.6
20221207184533 46 97 7.0 10.0 0.00 0.00 0.00 85 1016.5
20221207184012 46 98 7.0 10.0 0.00 0.00 0.00 85 1016.4
20221207183512 46 101 7.0 10.0 0.00 0.00 0.00 86 1016.4
20221207183033 46 103 7.0 10.0 0.00 0.00 0.00 86 1016.4
20221207182512 46 101 7.0 9.0 0.00 0.00 0.00 86 1016.3
20221207182012 46 102 7.0 10.0 0.00 0.00 0.00 86 1016.3
20221207181533 45 104 8.0 10.0 0.00 0.00 0.00 86 1016.4
20221207181012 45 105 7.0 10.0 0.00 0.00 0.00 86 1016.3
20221207180511 45 108 7.0 9.0 0.00 0.00 0.00 86 1016.4
20221207180011 45 110 7.0 9.0 0.00 0.00 0.00 86 1016.4
20221207175533 45 111 6.0 9.0 0.00 0.00 0.00 86 1016.4
20221207175012 45 111 5.0 8.0 0.00 0.00 0.00 85 1016.5
20221207174512 45 109 5.0 6.0 0.00 0.00 0.00 85 1016.5
20221207174012 45 105 5.0 6.0 0.00 0.00 0.00 85 1016.5
20221207173533 45 101 5.0 6.0 0.00 0.00 0.00 85 1016.4
20221207173012 45 101 5.0 6.0 0.00 0.00 0.00 84 1016.4
20221207172533 45 108 5.0 6.0 0.00 0.00 0.00 84 1016.3
20221207172011 46 115 5.0 8.0 0.00 0.00 0.00 84 1016.4
20221207171533 46 115 5.0 8.0 0.00 0.00 0.00 84 1016.3
20221207171012 46 118 5.0 6.0 0.00 0.00 0.00 84 1016.4
20221207170511 46 119 4.0 6.0 0.00 0.00 0.00 83 1016.3
20221207170011 46 112 5.0 8.0 0.00 0.00 0.00 83 1016.3
20221207165512 46 102 5.0 8.0 0.00 0.00 0.00 84 1016.2
20221207165012 46 98 6.0 8.0 0.00 0.00 0.00 84 1016.2
20221207164511 46 101 6.0 8.0 0.00 0.00 0.00 84 1016.2
20221207164012 46 102 6.0 8.0 0.00 0.00 0.00 84 1016.2
20221207163512 45 104 6.0 8.0 0.00 0.00 0.00 84 1016.2
20221207163033 45 103 6.0 9.0 0.00 0.00 0.00 84 1016.2
20221207162512 45 103 6.0 9.0 0.00 0.00 0.00 83 1016.1
20221207162033 46 102 6.0 8.0 0.00 0.00 0.00 83 1016.1
20221207161512 46 103 6.0 9.0 0.00 0.00 0.00 83 1016.1
20221207161033 46 103 6.0 9.0 0.00 0.00 0.00 83 1016.0
20221207160512 46 102 6.0 9.0 0.00 0.00 0.00 82 1016.1
20221207160012 46 104 5.0 8.0 0.00 0.00 0.00 82 1016.2
20221207155512 46 105 5.0 6.0 0.00 0.00 0.00 81 1016.3
20221207155033 46 104 5.0 6.0 0.00 0.00 0.00 81 1016.3
20221207154512 46 108 5.0 6.0 0.00 0.00 0.00 81 1016.3
20221207154012 46 114 4.0 6.0 0.00 0.00 0.00 81 1016.4
20221207153512 46 111 4.0 6.0 0.00 0.00 0.00 81 1016.3
20221207153012 46 109 4.0 5.0 0.00 0.00 0.00 81 1016.4
20221207152533 47 112 4.0 6.0 0.00 0.00 0.00 80 1016.4
20221207152011 47 107 4.0 6.0 0.00 0.00 0.00 80 1016.5
20221207151512 47 100 5.0 6.0 0.00 0.00 0.00 80 1016.4
20221207151012 47 99 5.0 6.0 0.00 0.00 0.00 80 1016.4
20221207150511 47 103 5.0 6.0 0.00 0.00 0.00 80 1016.5
20221207150012 47 106 4.0 6.0 0.00 0.00 0.00 79 1016.5
20221207145532 47 107 4.0 6.0 0.00 0.00 0.00 79 1016.5
20221207145012 47 107 5.0 6.0 0.00 0.00 0.00 78 1016.5
20221207144512 47 103 5.0 6.0 0.00 0.00 0.00 78 1016.6
20221207144012 47 102 4.0 6.0 0.00 0.00 0.00 78 1016.5
20221207143511 48 104 4.0 5.0 0.00 0.00 0.00 77 1016.5
20221207143012 48 104 4.0 6.0 0.00 0.00 0.00 76 1016.5
20221207142512 48 109 4.0 6.0 0.00 0.00 0.00 76 1016.6
20221207142011 48 115 3.0 5.0 0.00 0.00 0.00 76 1016.7
20221207141532 48 118 3.0 5.0 0.00 0.00 0.00 75 1016.7
20221207141012 48 114 3.0 5.0 0.00 0.00 0.00 75 1016.8
20221207140512 49 109 2.0 5.0 0.00 0.00 0.00 75 1016.7
20221207140012 49 112 2.0 5.0 0.00 0.00 0.00 74 1016.8
20221207135533 49 118 3.0 5.0 0.00 0.00 0.00 74 1016.8
20221207135033 49 122 3.0 5.0 0.00 0.00 0.00 73 1016.7
20221207134512 50 127 3.0 5.0 0.00 0.00 0.00 73 1016.7
20221207134012 50 123 2.0 5.0 0.00 0.00 0.00 72 1016.7
20221207133512 50 127 2.0 4.0 0.00 0.00 0.00 72 1016.7
20221207133012 50 153 1.0 3.0 0.00 0.00 0.00 71 1016.7
20221207132511 51 178 0.0 3.0 0.00 0.00 0.00 70 1016.7
20221207132012 51 176 1.0 3.0 0.00 0.00 0.00 69 1016.7
20221207131512 51 176 1.0 5.0 0.00 0.00 0.00 69 1016.7
20221207131011 51 173 2.0 9.0 0.00 0.00 0.00 68 1016.7
20221207130511 52 174 2.0 9.0 0.00 0.00 0.00 68 1016.7
20221207130012 52 178 2.0 6.0 0.00 0.00 0.00 68 1016.7
20221207125511 52 179 3.0 6.0 0.00 0.00 0.00 67 1016.7
20221207125011 52 181 3.0 8.0 0.00 0.00 0.00 67 1016.7
20221207124511 53 184 3.0 8.0 0.00 0.00 0.00 67 1016.7
20221207124012 53 186 3.0 9.0 0.00 0.00 0.00 66 1016.6
20221207123512 53 186 4.0 10.0 0.00 0.00 0.00 66 1016.6
20221207123012 54 186 6.0 15.0 0.00 0.00 0.00 65 1016.6
20221207122511 54 185 6.0 17.0 0.00 0.00 0.00 65 1016.5
20221207122032 54 187 6.0 18.0 0.00 0.00 0.00 65 1016.5
20221207121511 54 191 7.0 18.0 0.00 0.00 0.00 66 1016.6
20221207121011 54 193 6.0 13.0 0.00 0.00 0.00 66 1016.5
20221207120512 54 194 6.0 17.0 0.00 0.00 0.00 66 1016.5
20221207120012 54 192 7.0 17.0 0.00 0.00 0.00 66 1016.4
20221207115512 54 191 7.0 13.0 0.00 0.00 0.00 66 1016.4
20221207115012 54 189 6.0 13.0 0.00 0.00 0.00 65 1016.3
20221207114533 54 188 6.0 11.0 0.00 0.00 0.00 64 1016.2
20221207114012 54 189 5.0 9.0 0.00 0.00 0.00 64 1016.2
20221207113512 54 189 5.0 9.0 0.00 0.00 0.00 63 1016.1
20221207113011 54 188 5.0 10.0 0.00 0.00 0.00 63 1016.1
20221207112512 55 188 5.0 11.0 0.00 0.00 0.00 62 1016.0
20221207112011 55 186 5.0 11.0 0.00 0.00 0.00 61 1015.9
20221207111511 55 188 6.0 14.0 0.00 0.00 0.00 61 1015.7
20221207111011 55 190 7.0 19.0 0.00 0.00 0.00 60 1015.6
20221207110512 55 191 8.0 19.0 0.00 0.00 0.00 60 1015.6
20221207110012 56 186 9.0 19.0 0.00 0.00 0.00 59 1015.6
20221207105533 56 183 9.0 19.0 0.00 0.00 0.00 59 1015.5
20221207105011 56 186 8.0 18.0 0.00 0.00 0.00 59 1015.4
20221207104512 56 191 8.0 20.0 0.00 0.00 0.00 60 1015.3
20221207104011 56 192 9.0 20.0 0.00 0.00 0.00 59 1015.1
20221207103512 56 188 8.0 19.0 0.00 0.00 0.00 60 1015.0
20221207103012 57 191 7.0 14.0 0.00 0.00 0.00 60 1015.0
20221207102511 57 194 8.0 14.0 0.00 0.00 0.00 59 1014.8
20221207102012 57 192 9.0 23.0 0.00 0.00 0.00 60 1014.7
20221207101532 58 192 10.0 27.0 0.00 0.00 0.00 60 1014.6
20221207101012 58 197 10.0 27.0 0.00 0.00 0.00 60 1014.6
20221207100511 58 203 10.0 20.0 0.00 0.00 0.00 62 1014.5
20221207100012 59 206 10.0 20.0 0.00 0.00 0.00 62 1014.4
20221207095511 59 204 9.0 19.0 0.00 0.00 0.00 61 1014.3
20221207095011 60 200 8.0 18.0 0.00 0.00 0.00 60 1014.2
20221207094511 60 200 10.0 25.0 0.00 0.00 0.00 59 1014.1
20221207094011 61 194 10.0 25.0 0.00 0.00 0.00 58 1014.0
20221207093512 62 183 9.0 19.0 0.00 0.00 0.00 58 1013.9
20221207093012 62 183 8.0 19.0 0.00 0.00 0.00 57 1013.8
20221207092533 63 185 8.0 15.0 0.00 0.00 0.00 57 1013.7
20221207092012 63 195 10.0 20.0 0.00 0.00 0.00 57 1013.6
20221207091512 63 197 10.0 20.0 0.00 0.00 0.00 56 1013.6
20221207091012 64 194 9.0 19.0 0.00 0.00 0.00 56 1013.5
20221207090512 64 194 11.0 19.0 0.00 0.00 0.00 56 1013.4
20221207090012 64 194 11.0 23.0 0.00 0.00 0.00 55 1013.4
20221207085512 64 197 11.0 25.0 0.00 0.00 0.00 55 1013.3
20221207085011 65 213 14.0 29.0 0.00 0.00 0.00 57 1013.2
20221207084511 65 223 15.0 29.0 0.00 0.00 0.00 56 1013.1
20221207084011 65 221 14.0 28.0 0.00 0.00 0.00 57 1013.0
20221207083533 65 226 15.0 28.0 0.00 0.00 0.00 57 1013.0
20221207083012 65 235 16.0 30.0 0.00 0.00 0.00 58 1013.0
20221207082511 65 239 17.0 30.0 0.00 0.00 0.00 58 1013.0
20221207082033 65 239 16.0 30.0 0.00 0.00 0.00 58 1012.9
20221207081511 66 227 13.0 28.0 0.00 0.00 0.00 58 1012.8
20221207081011 66 219 12.0 24.0 0.00 0.00 0.00 55 1012.5
20221207080533 66 224 13.0 28.0 0.00 0.00 0.00 53 1012.4
20221207080012 66 226 16.0 30.0 0.00 0.00 0.00 52 1012.4
20221207075512 66 232 15.0 30.0 0.00 0.00 0.00 52 1012.3
20221207075032 67 235 15.0 28.0 0.00 0.00 0.00 54 1012.1
20221207074511 67 234 14.0 28.0 0.00 0.00 0.00 56 1012.0
20221207074011 68 230 13.0 25.0 0.00 0.00 0.00 55 1011.9
20221207073511 67 231 14.0 29.0 0.00 0.00 0.00 53 1011.9
20221207073011 67 233 14.0 29.0 0.00 0.00 0.00 53 1011.8
20221207072511 68 225 14.0 34.0 0.00 0.00 0.00 54 1011.8
20221207072012 67 222 15.0 34.0 0.00 0.00 0.00 56 1011.8
20221207071512 67 228 14.0 33.0 0.00 0.00 0.00 56 1011.8
20221207071032 67 233 15.0 28.0 0.00 0.00 0.00 56 1011.7
20221207070511 67 235 16.0 37.0 0.00 0.00 0.00 57 1012.0
20221207070012 66 238 16.0 37.0 0.00 0.00 0.00 55 1012.1
20221207065511 67 236 16.0 33.0 0.00 0.00 0.00 57 1011.8
20221207065011 67 231 15.0 33.0 0.00 0.00 0.00 58 1011.8
20221207064512 67 235 15.0 29.0 0.00 0.00 0.00 57 1011.7
20221207064012 67 239 16.0 30.0 0.00 0.00 0.00 59 1011.7
20221207063511 67 232 17.0 30.0 0.00 0.00 0.00 58 1011.6
20221207063012 66 230 17.0 30.0 0.00 0.00 0.00 59 1011.6
20221207062511 66 232 15.0 28.0 0.00 0.00 0.00 57 1011.7
20221207062011 67 229 14.0 28.0 0.00 0.00 0.00 58 1011.6
20221207061512 67 235 14.0 29.0 0.00 0.00 0.00 60 1011.6
20221207061011 66 245 14.0 29.0 0.00 0.00 0.00 63 1011.6
20221207060511 65 244 16.0 33.0 0.00 0.00 0.00 66 1011.7
20221207060012 65 239 16.0 33.0 0.00 0.00 0.00 65 1011.7
20221207055512 65 239 16.0 28.0 0.00 0.00 0.00 64 1011.8
20221207055032 65 241 16.0 29.0 0.00 0.00 0.00 62 1011.6
20221207054532 66 238 16.0 30.0 0.00 0.00 0.00 59 1011.7
20221207054011 67 226 15.0 30.0 0.00 0.00 0.00 56 1011.5
20221207053511 67 216 14.0 30.0 0.00 0.00 0.00 54 1011.6
20221207053012 67 223 15.0 30.0 0.00 0.00 0.00 54 1011.5
20221207052512 68 230 15.0 30.0 0.00 0.00 0.00 52 1011.5
20221207052011 69 237 17.0 33.0 0.00 0.00 0.00 49 1011.4
20221207051511 70 228 18.0 33.0 0.00 0.00 0.00 48 1011.2
20221207051011 70 211 17.0 34.0 0.00 0.00 0.00 48 1011.1
20221207050533 70 213 18.0 34.0 0.00 0.00 0.00 47 1011.2
20221207050012 69 221 17.0 32.0 0.00 0.00 0.00 47 1011.1
20221207045511 69 221 17.0 32.0 0.00 0.00 0.00 47 1011.1
20221207045011 69 220 17.0 32.0 0.00 0.00 0.00 44 1011.1
20221207044511 70 223 16.0 30.0 0.00 0.00 0.00 46 1011.2
20221207044012 70 220 14.0 30.0 0.00 0.00 0.00 45 1011.2
20221207043532 70 218 13.0 29.0 0.00 0.00 0.00 46 1011.1
20221207043011 70 218 15.0 30.0 0.00 0.00 0.00 46 1011.0
20221207042533 70 226 15.0 30.0 0.00 0.00 0.00 44 1010.9
20221207042011 70 231 17.0 34.0 0.00 0.00 0.00 47 1011.0
20221207041511 69 234 19.0 38.0 0.00 0.00 0.00 47 1011.1
20221207041011 69 234 19.0 38.0 0.00 0.00 0.00 46 1010.9
20221207040511 70 229 17.0 30.0 0.00 0.00 0.00 44 1011.0
20221207040012 70 231 16.0 32.0 0.00 0.00 0.00 46 1010.9
20221207035512 70 231 15.0 33.0 0.00 0.00 0.00 44 1010.8
20221207035011 70 237 16.0 33.0 0.00 0.00 0.00 45 1010.9
20221207034511 70 227 17.0 29.0 0.00 0.00 0.00 47 1010.9
20221207034032 70 215 17.0 29.0 0.00 0.00 0.00 47 1010.9
20221207033511 70 216 16.0 30.0 0.00 0.00 0.00 47 1010.9
20221207033011 69 218 17.0 36.0 0.00 0.00 0.00 49 1010.7
20221207032532 69 226 16.0 36.0 0.00 0.00 0.00 50 1010.9
20221207032011 69 232 14.0 25.0 0.00 0.00 0.00 50 1010.9
20221207031512 68 232 14.0 28.0 0.00 0.00 0.00 51 1010.9
20221207031011 68 230 14.0 28.0 0.00 0.00 0.00 51 1010.8
20221207030511 68 230 15.0 28.0 0.00 0.00 0.00 53 1010.8
20221207030011 68 240 15.0 28.0 0.00 0.00 0.00 55 1010.8
20221207025511 68 232 14.0 30.0 0.00 0.00 0.00 53 1010.7
20221207025011 68 232 13.0 33.0 0.00 0.00 0.00 54 1010.7
20221207024511 68 240 13.0 33.0 0.00 0.00 0.00 54 1010.8
20221207024011 68 221 13.0 27.0 0.00 0.00 0.00 52 1010.7
20221207023511 68 210 14.0 25.0 0.00 0.00 0.00 54 1010.6
20221207023011 68 218 13.0 25.0 0.00 0.00 0.00 54 1010.6
20221207022533 68 225 13.0 25.0 0.00 0.00 0.00 53 1010.6
20221207022011 68 223 12.0 24.0 0.00 0.00 0.00 54 1010.5
20221207021511 68 230 12.0 23.0 0.00 0.00 0.00 53 1010.6
20221207021011 67 238 13.0 23.0 0.00 0.00 0.00 56 1010.6
20221207020511 67 239 13.0 20.0 0.00 0.00 0.00 53 1010.6
20221207020032 67 227 14.0 29.0 0.00 0.00 0.00 55 1010.5